sensor_id;sensor_type;location;lat;lon;timestamp;temperature;humidity
19516;DHT22;9901;47.448;7.692;2022-12-18T00:01:36;-2.00;99.90
19516;DHT22;9901;47.448;7.692;2022-12-18T00:04:04;-2.00;99.90
19516;DHT22;9901;47.448;7.692;2022-12-18T00:06:31;-1.90;99.90
19516;DHT22;9901;47.448;7.692;2022-12-18T00:08:59;-2.00;99.90
19516;DHT22;9901;47.448;7.692;2022-12-18T00:11:27;-2.00;99.90
19516;DHT22;9901;47.448;7.692;2022-12-18T00:13:54;-2.00;99.90
19516;DHT22;9901;47.448;7.692;2022-12-18T00:16:22;-2.00;99.90
19516;DHT22;9901;47.448;7.692;2022-12-18T00:18:49;-2.00;99.90
19516;DHT22;9901;47.448;7.692;2022-12-18T00:21:18;-2.00;99.90
19516;DHT22;9901;47.448;7.692;2022-12-18T00:23:44;-2.10;99.90
19516;DHT22;9901;47.448;7.692;2022-12-18T00:26:14;-2.10;99.90
19516;DHT22;9901;47.448;7.692;2022-12-18T00:28:40;-2.20;99.90
19516;DHT22;9901;47.448;7.692;2022-12-18T00:31:27;-2.10;99.90
19516;DHT22;9901;47.448;7.692;2022-12-18T00:33:55;-2.10;99.90
19516;DHT22;9901;47.448;7.692;2022-12-18T00:36:27;-2.20;99.90
19516;DHT22;9901;47.448;7.692;2022-12-18T00:38:54;-2.10;99.90
19516;DHT22;9901;47.448;7.692;2022-12-18T00:44:06;-2.10;99.90
19516;DHT22;9901;47.448;7.692;2022-12-18T00:46:32;-2.20;99.90
19516;DHT22;9901;47.448;7.692;2022-12-18T00:48:58;-2.20;99.90
19516;DHT22;9901;47.448;7.692;2022-12-18T00:51:25;-2.20;99.90
19516;DHT22;9901;47.448;7.692;2022-12-18T00:53:52;-2.20;99.90
19516;DHT22;9901;47.448;7.692;2022-12-18T00:56:17;-2.20;99.90
19516;DHT22;9901;47.448;7.692;2022-12-18T01:01:09;-2.20;99.90
19516;DHT22;9901;47.448;7.692;2022-12-18T01:03:35;-2.30;99.90
19516;DHT22;9901;47.448;7.692;2022-12-18T01:06:06;-2.30;99.90
19516;DHT22;9901;47.448;7.692;2022-12-18T01:08:32;-2.40;99.90
19516;DHT22;9901;47.448;7.692;2022-12-18T01:10:58;-2.40;99.90
19516;DHT22;9901;47.448;7.692;2022-12-18T01:13:24;-2.40;99.90
19516;DHT22;9901;47.448;7.692;2022-12-18T01:15:57;-2.40;99.90
19516;DHT22;9901;47.448;7.692;2022-12-18T01:18:23;-2.50;99.90
19516;DHT22;9901;47.448;7.692;2022-12-18T01:23:56;-2.50;99.90
19516;DHT22;9901;47.448;7.692;2022-12-18T01:26:22;-2.60;99.90
19516;DHT22;9901;47.448;7.692;2022-12-18T01:28:48;-2.60;99.90
19516;DHT22;9901;47.448;7.692;2022-12-18T01:31:23;-2.60;99.90
19516;DHT22;9901;47.448;7.692;2022-12-18T01:33:50;-2.60;99.90
19516;DHT22;9901;47.448;7.692;2022-12-18T01:36:40;-2.60;99.90
19516;DHT22;9901;47.448;7.692;2022-12-18T01:39:10;-2.70;99.90
19516;DHT22;9901;47.448;7.692;2022-12-18T01:41:36;-2.70;99.90
19516;DHT22;9901;47.448;7.692;2022-12-18T01:44:58;-2.70;99.90
19516;DHT22;9901;47.448;7.692;2022-12-18T01:47:44;-2.80;99.90
19516;DHT22;9901;47.448;7.692;2022-12-18T01:50:22;-2.80;99.90
19516;DHT22;9901;47.448;7.692;2022-12-18T01:53:00;-2.90;99.90
19516;DHT22;9901;47.448;7.692;2022-12-18T01:55:30;-2.90;99.90
19516;DHT22;9901;47.448;7.692;2022-12-18T01:57:58;-2.90;99.90
19516;DHT22;9901;47.448;7.692;2022-12-18T02:00:26;-2.90;99.90
19516;DHT22;9901;47.448;7.692;2022-12-18T02:02:53;-2.90;99.90
19516;DHT22;9901;47.448;7.692;2022-12-18T02:08:09;-3.00;99.90
19516;DHT22;9901;47.448;7.692;2022-12-18T02:11:01;-3.00;99.90
19516;DHT22;9901;47.448;7.692;2022-12-18T02:16:39;-3.10;99.90
19516;DHT22;9901;47.448;7.692;2022-12-18T02:27:24;-3.20;99.90
19516;DHT22;9901;47.448;7.692;2022-12-18T02:29:54;-3.20;99.90
19516;DHT22;9901;47.448;7.692;2022-12-18T02:32:34;-3.20;99.90
19516;DHT22;9901;47.448;7.692;2022-12-18T02:35:04;-3.20;99.90
19516;DHT22;9901;47.448;7.692;2022-12-18T02:37:31;-3.10;99.90
19516;DHT22;9901;47.448;7.692;2022-12-18T02:39:59;-3.10;99.90
19516;DHT22;9901;47.448;7.692;2022-12-18T02:42:26;-3.10;99.90
19516;DHT22;9901;47.448;7.692;2022-12-18T02:44:53;-3.10;99.90
19516;DHT22;9901;47.448;7.692;2022-12-18T02:47:22;-3.10;99.90
19516;DHT22;9901;47.448;7.692;2022-12-18T02:52:31;-3.20;99.90
19516;DHT22;9901;47.448;7.692;2022-12-18T03:00:10;-3.20;99.90
19516;DHT22;9901;47.448;7.692;2022-12-18T03:05:19;-3.30;99.90
19516;DHT22;9901;47.448;7.692;2022-12-18T03:07:50;-3.30;99.90
19516;DHT22;9901;47.448;7.692;2022-12-18T03:10:27;-3.30;99.90
19516;DHT22;9901;47.448;7.692;2022-12-18T03:13:09;-3.40;99.90
19516;DHT22;9901;47.448;7.692;2022-12-18T03:15:45;-3.40;99.90
19516;DHT22;9901;47.448;7.692;2022-12-18T03:18:17;-3.40;99.90
19516;DHT22;9901;47.448;7.692;2022-12-18T03:20:46;-3.50;99.90
19516;DHT22;9901;47.448;7.692;2022-12-18T03:23:16;-3.50;99.90
19516;DHT22;9901;47.448;7.692;2022-12-18T03:25:44;-3.50;99.90
19516;DHT22;9901;47.448;7.692;2022-12-18T03:28:20;-3.50;99.90
19516;DHT22;9901;47.448;7.692;2022-12-18T03:30:55;-3.50;99.90
19516;DHT22;9901;47.448;7.692;2022-12-18T03:35:56;-3.60;99.90
19516;DHT22;9901;47.448;7.692;2022-12-18T03:38:22;-3.60;99.90
19516;DHT22;9901;47.448;7.692;2022-12-18T03:41:15;-3.60;99.90
19516;DHT22;9901;47.448;7.692;2022-12-18T03:49:35;-3.50;99.90
19516;DHT22;9901;47.448;7.692;2022-12-18T03:54:33;-3.60;99.90
19516;DHT22;9901;47.448;7.692;2022-12-18T03:57:09;-3.60;99.90
19516;DHT22;9901;47.448;7.692;2022-12-18T03:59:37;-3.60;99.90
19516;DHT22;9901;47.448;7.692;2022-12-18T04:02:04;-3.70;99.90
19516;DHT22;9901;47.448;7.692;2022-12-18T04:04:34;-3.70;99.90
19516;DHT22;9901;47.448;7.692;2022-12-18T04:07:00;-3.70;99.90
19516;DHT22;9901;47.448;7.692;2022-12-18T04:09:27;-3.70;99.90
19516;DHT22;9901;47.448;7.692;2022-12-18T04:11:54;-3.80;99.90
19516;DHT22;9901;47.448;7.692;2022-12-18T04:14:19;-3.80;99.90
19516;DHT22;9901;47.448;7.692;2022-12-18T04:16:45;-3.80;99.90
19516;DHT22;9901;47.448;7.692;2022-12-18T04:19:10;-3.90;99.90
19516;DHT22;9901;47.448;7.692;2022-12-18T04:21:36;-3.90;99.90
19516;DHT22;9901;47.448;7.692;2022-12-18T04:24:03;-3.80;99.90
19516;DHT22;9901;47.448;7.692;2022-12-18T04:26:28;-3.90;99.90
19516;DHT22;9901;47.448;7.692;2022-12-18T04:28:55;-3.90;99.90
19516;DHT22;9901;47.448;7.692;2022-12-18T04:31:21;-3.80;99.90
19516;DHT22;9901;47.448;7.692;2022-12-18T04:33:46;-3.80;99.90
19516;DHT22;9901;47.448;7.692;2022-12-18T04:36:12;-3.90;99.90
19516;DHT22;9901;47.448;7.692;2022-12-18T04:38:53;-3.90;99.90
19516;DHT22;9901;47.448;7.692;2022-12-18T04:41:19;-3.90;99.90
19516;DHT22;9901;47.448;7.692;2022-12-18T04:43:44;-3.90;99.90
19516;DHT22;9901;47.448;7.692;2022-12-18T04:46:10;-3.90;99.90
19516;DHT22;9901;47.448;7.692;2022-12-18T04:48:36;-3.80;99.90
19516;DHT22;9901;47.448;7.692;2022-12-18T04:51:02;-3.90;99.90
19516;DHT22;9901;47.448;7.692;2022-12-18T04:53:27;-3.80;99.90
19516;DHT22;9901;47.448;7.692;2022-12-18T04:56:08;-3.80;99.90
19516;DHT22;9901;47.448;7.692;2022-12-18T04:58:34;-3.90;99.90
19516;DHT22;9901;47.448;7.692;2022-12-18T05:01:00;-3.80;99.90
19516;DHT22;9901;47.448;7.692;2022-12-18T05:03:26;-3.90;99.90
19516;DHT22;9901;47.448;7.692;2022-12-18T05:05:51;-3.90;99.90
19516;DHT22;9901;47.448;7.692;2022-12-18T05:08:17;-3.90;99.90
19516;DHT22;9901;47.448;7.692;2022-12-18T05:10:43;-3.90;99.90
19516;DHT22;9901;47.448;7.692;2022-12-18T05:13:09;-3.90;99.90
19516;DHT22;9901;47.448;7.692;2022-12-18T05:15:34;-3.90;99.90
19516;DHT22;9901;47.448;7.692;2022-12-18T05:18:00;-3.90;99.90
19516;DHT22;9901;47.448;7.692;2022-12-18T05:20:27;-3.90;99.90
19516;DHT22;9901;47.448;7.692;2022-12-18T05:22:53;-3.90;99.90
19516;DHT22;9901;47.448;7.692;2022-12-18T05:25:20;-3.90;99.90
19516;DHT22;9901;47.448;7.692;2022-12-18T05:27:48;-4.00;99.90
19516;DHT22;9901;47.448;7.692;2022-12-18T05:30:15;-4.00;99.90
19516;DHT22;9901;47.448;7.692;2022-12-18T05:32:41;-4.00;99.90
19516;DHT22;9901;47.448;7.692;2022-12-18T05:35:09;-4.00;99.90
19516;DHT22;9901;47.448;7.692;2022-12-18T05:37:35;-4.00;99.90
19516;DHT22;9901;47.448;7.692;2022-12-18T05:40:01;-4.00;99.90
19516;DHT22;9901;47.448;7.692;2022-12-18T05:42:27;-4.00;99.90
19516;DHT22;9901;47.448;7.692;2022-12-18T05:44:52;-4.00;99.90
19516;DHT22;9901;47.448;7.692;2022-12-18T05:47:18;-4.00;99.90
19516;DHT22;9901;47.448;7.692;2022-12-18T05:49:43;-4.10;99.90
19516;DHT22;9901;47.448;7.692;2022-12-18T05:52:09;-4.10;99.90
19516;DHT22;9901;47.448;7.692;2022-12-18T05:54:35;-4.10;99.90
19516;DHT22;9901;47.448;7.692;2022-12-18T05:57:00;-4.10;99.90
19516;DHT22;9901;47.448;7.692;2022-12-18T05:59:26;-4.10;99.90
19516;DHT22;9901;47.448;7.692;2022-12-18T06:01:51;-4.20;99.90
19516;DHT22;9901;47.448;7.692;2022-12-18T06:04:17;-4.20;99.90
19516;DHT22;9901;47.448;7.692;2022-12-18T06:06:43;-4.20;99.90
19516;DHT22;9901;47.448;7.692;2022-12-18T06:09:08;-4.20;99.90
19516;DHT22;9901;47.448;7.692;2022-12-18T06:11:36;-4.20;99.90
19516;DHT22;9901;47.448;7.692;2022-12-18T06:14:03;-4.20;99.90
19516;DHT22;9901;47.448;7.692;2022-12-18T06:16:30;-4.20;99.90
19516;DHT22;9901;47.448;7.692;2022-12-18T06:18:59;-4.20;99.90
19516;DHT22;9901;47.448;7.692;2022-12-18T06:21:26;-4.20;99.90
19516;DHT22;9901;47.448;7.692;2022-12-18T06:23:52;-4.20;99.90
19516;DHT22;9901;47.448;7.692;2022-12-18T06:26:18;-4.10;99.90
19516;DHT22;9901;47.448;7.692;2022-12-18T06:28:43;-4.20;99.90
19516;DHT22;9901;47.448;7.692;2022-12-18T06:31:12;-4.10;99.90
19516;DHT22;9901;47.448;7.692;2022-12-18T06:33:38;-4.20;99.90
19516;DHT22;9901;47.448;7.692;2022-12-18T06:36:06;-4.20;99.90
19516;DHT22;9901;47.448;7.692;2022-12-18T06:38:35;-4.20;99.90
19516;DHT22;9901;47.448;7.692;2022-12-18T06:41:05;-4.20;99.90
19516;DHT22;9901;47.448;7.692;2022-12-18T06:43:31;-4.20;99.90
19516;DHT22;9901;47.448;7.692;2022-12-18T06:48:27;-4.20;99.90
19516;DHT22;9901;47.448;7.692;2022-12-18T06:50:55;-4.10;99.90
19516;DHT22;9901;47.448;7.692;2022-12-18T06:53:21;-4.00;99.90
19516;DHT22;9901;47.448;7.692;2022-12-18T06:55:47;-4.00;99.90
19516;DHT22;9901;47.448;7.692;2022-12-18T06:58:12;-4.00;99.90
19516;DHT22;9901;47.448;7.692;2022-12-18T07:00:38;-4.00;99.90
19516;DHT22;9901;47.448;7.692;2022-12-18T07:03:04;-4.00;99.90
19516;DHT22;9901;47.448;7.692;2022-12-18T07:05:29;-3.90;99.90
19516;DHT22;9901;47.448;7.692;2022-12-18T07:07:55;-3.90;99.90
19516;DHT22;9901;47.448;7.692;2022-12-18T07:10:20;-3.90;99.90
19516;DHT22;9901;47.448;7.692;2022-12-18T07:12:46;-3.90;99.90
19516;DHT22;9901;47.448;7.692;2022-12-18T07:15:15;-4.00;99.90
19516;DHT22;9901;47.448;7.692;2022-12-18T07:17:40;-4.00;99.90
19516;DHT22;9901;47.448;7.692;2022-12-18T07:20:09;-4.00;99.90
19516;DHT22;9901;47.448;7.692;2022-12-18T07:22:35;-3.90;99.90
19516;DHT22;9901;47.448;7.692;2022-12-18T07:25:01;-3.90;99.90
19516;DHT22;9901;47.448;7.692;2022-12-18T07:27:26;-4.00;99.90
19516;DHT22;9901;47.448;7.692;2022-12-18T07:29:52;-3.90;99.90
19516;DHT22;9901;47.448;7.692;2022-12-18T07:32:17;-3.90;99.90
19516;DHT22;9901;47.448;7.692;2022-12-18T07:34:43;-3.90;99.90
19516;DHT22;9901;47.448;7.692;2022-12-18T07:37:09;-3.80;99.90
19516;DHT22;9901;47.448;7.692;2022-12-18T07:42:00;-3.80;99.90
19516;DHT22;9901;47.448;7.692;2022-12-18T07:44:44;-3.70;99.90
19516;DHT22;9901;47.448;7.692;2022-12-18T07:47:10;-3.70;99.90
19516;DHT22;9901;47.448;7.692;2022-12-18T07:49:36;-3.60;99.90
19516;DHT22;9901;47.448;7.692;2022-12-18T07:52:01;-3.50;99.90
19516;DHT22;9901;47.448;7.692;2022-12-18T07:56:53;-3.30;99.90
19516;DHT22;9901;47.448;7.692;2022-12-18T07:59:18;-3.30;99.90
19516;DHT22;9901;47.448;7.692;2022-12-18T08:01:44;-3.20;99.90
19516;DHT22;9901;47.448;7.692;2022-12-18T08:04:12;-3.10;99.90
19516;DHT22;9901;47.448;7.692;2022-12-18T08:09:04;-3.00;99.90
19516;DHT22;9901;47.448;7.692;2022-12-18T08:11:30;-2.90;99.90
19516;DHT22;9901;47.448;7.692;2022-12-18T08:13:56;-2.90;99.90
19516;DHT22;9901;47.448;7.692;2022-12-18T08:16:25;-2.90;99.90
19516;DHT22;9901;47.448;7.692;2022-12-18T08:19:10;-2.80;99.90
19516;DHT22;9901;47.448;7.692;2022-12-18T08:21:37;-2.80;99.90
19516;DHT22;9901;47.448;7.692;2022-12-18T08:24:03;-2.80;99.90
19516;DHT22;9901;47.448;7.692;2022-12-18T08:26:34;-2.80;99.90
19516;DHT22;9901;47.448;7.692;2022-12-18T08:29:00;-2.80;99.90
19516;DHT22;9901;47.448;7.692;2022-12-18T08:31:31;-2.80;99.90
19516;DHT22;9901;47.448;7.692;2022-12-18T08:34:01;-2.70;99.90
19516;DHT22;9901;47.448;7.692;2022-12-18T08:36:29;-2.70;99.90
19516;DHT22;9901;47.448;7.692;2022-12-18T08:38:56;-2.70;99.90
19516;DHT22;9901;47.448;7.692;2022-12-18T08:41:21;-2.60;99.90
19516;DHT22;9901;47.448;7.692;2022-12-18T08:43:47;-2.60;99.90
19516;DHT22;9901;47.448;7.692;2022-12-18T08:46:46;-2.60;99.90
19516;DHT22;9901;47.448;7.692;2022-12-18T08:49:12;-2.50;99.90
19516;DHT22;9901;47.448;7.692;2022-12-18T08:51:38;-2.50;99.90
19516;DHT22;9901;47.448;7.692;2022-12-18T08:54:05;-2.40;99.90
19516;DHT22;9901;47.448;7.692;2022-12-18T08:56:34;-2.30;99.90
19516;DHT22;9901;47.448;7.692;2022-12-18T09:01:35;-2.20;99.90
19516;DHT22;9901;47.448;7.692;2022-12-18T09:04:01;-2.10;99.90
19516;DHT22;9901;47.448;7.692;2022-12-18T09:06:26;-2.10;99.90
19516;DHT22;9901;47.448;7.692;2022-12-18T09:09:26;-2.10;99.90
19516;DHT22;9901;47.448;7.692;2022-12-18T09:14:56;-1.90;99.90
19516;DHT22;9901;47.448;7.692;2022-12-18T09:17:24;-1.80;99.90
19516;DHT22;9901;47.448;7.692;2022-12-18T09:19:51;-1.80;99.90
19516;DHT22;9901;47.448;7.692;2022-12-18T09:22:16;-1.80;99.90
19516;DHT22;9901;47.448;7.692;2022-12-18T09:24:48;-1.80;99.90
19516;DHT22;9901;47.448;7.692;2022-12-18T09:27:14;-1.70;99.90
19516;DHT22;9901;47.448;7.692;2022-12-18T13:18:51;3.90;99.90
19516;DHT22;9901;47.448;7.692;2022-12-18T13:21:28;3.90;99.90
19516;DHT22;9901;47.448;7.692;2022-12-18T13:23:55;4.00;99.90
19516;DHT22;9901;47.448;7.692;2022-12-18T13:26:29;3.90;99.90
19516;DHT22;9901;47.448;7.692;2022-12-18T13:28:57;4.10;99.90
19516;DHT22;9901;47.448;7.692;2022-12-18T13:34:21;4.40;99.90
19516;DHT22;9901;47.448;7.692;2022-12-18T13:36:48;4.50;99.90
19516;DHT22;9901;47.448;7.692;2022-12-18T13:42:31;4.10;99.90
19516;DHT22;9901;47.448;7.692;2022-12-18T13:44:40;4.00;99.90
19516;DHT22;9901;47.448;7.692;2022-12-18T13:49:54;3.50;99.90
19516;DHT22;9901;47.448;7.692;2022-12-18T13:52:26;3.40;99.90
19516;DHT22;9901;47.448;7.692;2022-12-18T13:54:57;3.30;99.90
19516;DHT22;9901;47.448;7.692;2022-12-18T13:57:33;3.20;99.90
19516;DHT22;9901;47.448;7.692;2022-12-18T14:00:29;3.20;99.90
19516;DHT22;9901;47.448;7.692;2022-12-18T14:02:56;3.10;99.90
19516;DHT22;9901;47.448;7.692;2022-12-18T14:07:52;3.10;99.90
19516;DHT22;9901;47.448;7.692;2022-12-18T14:10:19;3.10;99.90
19516;DHT22;9901;47.448;7.692;2022-12-18T14:12:48;3.20;99.90
19516;DHT22;9901;47.448;7.692;2022-12-18T14:20:43;3.00;99.90
19516;DHT22;9901;47.448;7.692;2022-12-18T14:23:33;3.00;99.90
19516;DHT22;9901;47.448;7.692;2022-12-18T14:26:00;3.00;99.90
19516;DHT22;9901;47.448;7.692;2022-12-18T14:28:26;3.00;99.90
19516;DHT22;9901;47.448;7.692;2022-12-18T14:30:52;2.80;99.90
19516;DHT22;9901;47.448;7.692;2022-12-18T14:33:24;2.70;99.90
19516;DHT22;9901;47.448;7.692;2022-12-18T14:36:01;2.70;99.90
19516;DHT22;9901;47.448;7.692;2022-12-18T14:38:36;2.70;99.90
19516;DHT22;9901;47.448;7.692;2022-12-18T14:43:33;2.70;99.90
19516;DHT22;9901;47.448;7.692;2022-12-18T14:46:01;2.60;99.90
19516;DHT22;9901;47.448;7.692;2022-12-18T14:48:38;2.60;99.90
19516;DHT22;9901;47.448;7.692;2022-12-18T14:53:53;2.40;99.90
19516;DHT22;9901;47.448;7.692;2022-12-18T14:59:03;2.30;99.90
19516;DHT22;9901;47.448;7.692;2022-12-18T15:01:47;2.20;99.90
19516;DHT22;9901;47.448;7.692;2022-12-18T15:04:34;2.10;99.90
19516;DHT22;9901;47.448;7.692;2022-12-18T15:07:08;2.10;99.90
19516;DHT22;9901;47.448;7.692;2022-12-18T15:09:35;2.00;99.90
19516;DHT22;9901;47.448;7.692;2022-12-18T15:12:01;1.90;99.90
19516;DHT22;9901;47.448;7.692;2022-12-18T15:14:31;1.90;99.90
19516;DHT22;9901;47.448;7.692;2022-12-18T15:16:59;1.80;99.90
19516;DHT22;9901;47.448;7.692;2022-12-18T15:19:34;1.80;99.90
19516;DHT22;9901;47.448;7.692;2022-12-18T15:22:04;1.80;99.90
19516;DHT22;9901;47.448;7.692;2022-12-18T15:24:31;1.60;99.90
19516;DHT22;9901;47.448;7.692;2022-12-18T15:26:58;1.60;99.90
19516;DHT22;9901;47.448;7.692;2022-12-18T15:29:24;1.50;99.90
19516;DHT22;9901;47.448;7.692;2022-12-18T15:32:02;1.50;99.90
19516;DHT22;9901;47.448;7.692;2022-12-18T15:34:29;1.40;99.90
19516;DHT22;9901;47.448;7.692;2022-12-18T15:36:55;1.30;99.90
19516;DHT22;9901;47.448;7.692;2022-12-18T15:39:20;1.30;99.90
19516;DHT22;9901;47.448;7.692;2022-12-18T15:41:57;1.40;99.90
19516;DHT22;9901;47.448;7.692;2022-12-18T15:44:43;1.30;99.90
19516;DHT22;9901;47.448;7.692;2022-12-18T15:47:11;1.30;99.90
19516;DHT22;9901;47.448;7.692;2022-12-18T15:49:39;1.20;99.90
19516;DHT22;9901;47.448;7.692;2022-12-18T15:52:05;1.20;99.90
19516;DHT22;9901;47.448;7.692;2022-12-18T15:54:31;1.20;99.90
19516;DHT22;9901;47.448;7.692;2022-12-18T15:57:15;1.10;99.90
19516;DHT22;9901;47.448;7.692;2022-12-18T15:59:55;1.10;99.90
19516;DHT22;9901;47.448;7.692;2022-12-18T16:02:23;1.10;99.90
19516;DHT22;9901;47.448;7.692;2022-12-18T16:04:50;1.10;99.90
19516;DHT22;9901;47.448;7.692;2022-12-18T16:07:19;1.10;99.90
19516;DHT22;9901;47.448;7.692;2022-12-18T16:09:45;1.10;99.90
19516;DHT22;9901;47.448;7.692;2022-12-18T16:12:18;1.00;99.90
19516;DHT22;9901;47.448;7.692;2022-12-18T16:14:50;0.90;99.90
19516;DHT22;9901;47.448;7.692;2022-12-18T16:17:16;1.00;99.90
19516;DHT22;9901;47.448;7.692;2022-12-18T16:19:49;0.90;99.90
19516;DHT22;9901;47.448;7.692;2022-12-18T16:22:24;0.90;99.90
19516;DHT22;9901;47.448;7.692;2022-12-18T16:24:51;1.00;99.90
19516;DHT22;9901;47.448;7.692;2022-12-18T16:27:30;1.00;99.90
19516;DHT22;9901;47.448;7.692;2022-12-18T16:29:56;1.00;99.90
19516;DHT22;9901;47.448;7.692;2022-12-18T16:32:24;1.00;99.90
19516;DHT22;9901;47.448;7.692;2022-12-18T16:34:50;0.90;99.90
19516;DHT22;9901;47.448;7.692;2022-12-18T16:37:18;0.90;99.90
19516;DHT22;9901;47.448;7.692;2022-12-18T16:39:44;0.90;99.90
19516;DHT22;9901;47.448;7.692;2022-12-18T16:42:13;0.90;99.90
19516;DHT22;9901;47.448;7.692;2022-12-18T16:44:41;0.90;99.90
19516;DHT22;9901;47.448;7.692;2022-12-18T16:47:07;0.90;99.90
19516;DHT22;9901;47.448;7.692;2022-12-18T16:49:33;0.80;99.90
19516;DHT22;9901;47.448;7.692;2022-12-18T16:51:59;0.80;99.90
19516;DHT22;9901;47.448;7.692;2022-12-18T16:54:28;0.90;99.90
19516;DHT22;9901;47.448;7.692;2022-12-18T17:00:25;0.80;99.90
19516;DHT22;9901;47.448;7.692;2022-12-18T17:06:05;0.90;99.90
19516;DHT22;9901;47.448;7.692;2022-12-18T17:08:31;0.90;99.90
